createdAt,value
2023-05-21T00:01:08.299Z,16.27
2023-05-21T00:03:36.596Z,16.38
2023-05-21T00:06:04.205Z,16.31
2023-05-21T00:08:31.343Z,16.15
2023-05-21T00:10:58.342Z,16.11
2023-05-21T00:13:25.204Z,16.09
2023-05-21T00:15:52.154Z,16.10
2023-05-21T00:18:19.336Z,16.05
2023-05-21T00:20:46.110Z,16.12
2023-05-21T00:23:13.163Z,16.07
2023-05-21T00:25:40.084Z,16.05
2023-05-21T00:28:07.005Z,16.13
2023-05-21T00:30:33.795Z,16.09
2023-05-21T00:33:03.081Z,15.97
2023-05-21T00:35:30.145Z,16.05
2023-05-21T00:37:57.544Z,16.09
2023-05-21T00:40:24.551Z,16.02
2023-05-21T00:42:51.362Z,15.97
2023-05-21T00:45:18.241Z,15.88
2023-05-21T00:47:46.074Z,15.92
2023-05-21T00:50:15.302Z,15.87
2023-05-21T00:52:44.330Z,16.03
2023-05-21T00:55:11.322Z,16.22
2023-05-21T00:57:39.836Z,16.07
2023-05-21T01:00:09.060Z,16.01
2023-05-21T01:02:37.686Z,15.90
2023-05-21T01:05:07.427Z,15.88
2023-05-21T01:07:36.297Z,15.90
2023-05-21T01:10:05.346Z,15.89
2023-05-21T01:12:34.282Z,15.86
2023-05-21T01:15:03.104Z,15.80
2023-05-21T01:17:30.378Z,15.80
2023-05-21T01:19:58.495Z,15.73
2023-05-21T01:22:25.603Z,15.75
2023-05-21T01:24:55.777Z,15.75
2023-05-21T01:27:23.146Z,15.75
2023-05-21T01:29:50.051Z,15.77
2023-05-21T01:32:28.843Z,15.67
2023-05-21T01:35:17.143Z,15.65
2023-05-21T01:38:13.516Z,15.71
2023-05-21T01:41:03.934Z,15.65
2023-05-21T01:43:37.223Z,15.70
2023-05-21T01:46:05.865Z,15.63
2023-05-21T01:48:32.881Z,15.57
2023-05-21T01:51:03.628Z,15.60
2023-05-21T01:53:30.780Z,15.59
2023-05-21T01:55:57.733Z,15.52
2023-05-21T01:58:24.586Z,15.62
2023-05-21T02:00:51.460Z,15.53
2023-05-21T02:03:19.768Z,15.50
2023-05-21T02:05:47.366Z,15.50
2023-05-21T02:08:15.543Z,15.51
2023-05-21T02:10:42.406Z,15.58
2023-05-21T02:13:09.267Z,15.47
2023-05-21T02:15:36.568Z,15.44
2023-05-21T02:18:04.201Z,15.47
2023-05-21T02:20:31.620Z,15.41
2023-05-21T02:22:58.384Z,15.41
2023-05-21T02:25:25.189Z,15.29
2023-05-21T02:27:53.900Z,15.35
2023-05-21T02:30:21.120Z,15.40
2023-05-21T02:32:50.120Z,15.37
2023-05-21T02:35:16.977Z,15.39
2023-05-21T02:37:44.473Z,15.31
2023-05-21T02:40:12.080Z,15.31
2023-05-21T02:42:40.545Z,15.23
2023-05-21T02:45:11.844Z,15.28
2023-05-21T02:47:39.242Z,15.18
2023-05-21T02:50:08.997Z,15.24
2023-05-21T02:52:36.016Z,15.27
2023-05-21T02:55:02.996Z,15.12
2023-05-21T02:57:29.811Z,15.04
2023-05-21T02:59:56.654Z,14.92
2023-05-21T03:02:23.873Z,15.13
2023-05-21T03:04:51.675Z,15.05
2023-05-21T03:07:20.214Z,15.10
2023-05-21T03:09:47.149Z,15.07
2023-05-21T03:12:14.011Z,15.02
2023-05-21T03:14:44.368Z,15.07
2023-05-21T03:17:14.240Z,15.03
2023-05-21T03:19:44.950Z,15.04
2023-05-21T03:22:11.853Z,14.96
2023-05-21T03:24:39.516Z,14.94
2023-05-21T03:27:09.170Z,14.98
2023-05-21T03:29:36.404Z,14.94
2023-05-21T03:32:03.697Z,14.89
2023-05-21T03:34:30.607Z,15.17
2023-05-21T03:36:57.448Z,15.18
2023-05-21T03:39:24.261Z,15.18
2023-05-21T03:41:51.139Z,15.10
2023-05-21T03:44:17.997Z,15.15
2023-05-21T03:46:45.924Z,15.26
2023-05-21T03:49:12.826Z,15.18
2023-05-21T03:51:39.884Z,15.16
2023-05-21T03:54:06.783Z,15.17
2023-05-21T03:56:33.691Z,15.22
2023-05-21T03:59:00.488Z,15.29
2023-05-21T04:01:28.713Z,15.32
2023-05-21T04:03:56.114Z,15.33
2023-05-21T04:06:23.055Z,15.31
2023-05-21T04:08:49.926Z,15.33
2023-05-21T04:11:17.124Z,15.28
2023-05-21T04:13:43.895Z,15.32
2023-05-21T04:16:11.141Z,15.43
2023-05-21T04:18:37.958Z,15.39
2023-05-21T04:21:05.141Z,15.43
2023-05-21T04:23:32.041Z,15.37
2023-05-21T04:25:58.853Z,15.42
2023-05-21T04:28:29.031Z,15.47
2023-05-21T04:30:56.789Z,15.51
2023-05-21T04:33:24.775Z,15.58
2023-05-21T04:35:52.030Z,15.64
2023-05-21T04:38:22.027Z,15.70
2023-05-21T04:40:52.133Z,15.76
2023-05-21T04:43:26.518Z,15.83
2023-05-21T04:45:56.620Z,15.89
2023-05-21T04:48:25.105Z,15.94
2023-05-21T04:50:53.820Z,15.92
2023-05-21T04:53:21.024Z,15.94
2023-05-21T04:55:48.222Z,16.11
2023-05-21T04:58:18.083Z,16.12
2023-05-21T05:00:47.369Z,16.20
2023-05-21T05:03:14.850Z,16.20
2023-05-21T05:05:42.251Z,16.21
2023-05-21T05:08:09.033Z,16.37
2023-05-21T05:10:36.278Z,16.30
2023-05-21T05:13:03.232Z,16.42
2023-05-21T05:15:30.100Z,16.47
2023-05-21T05:17:56.973Z,16.67
2023-05-21T05:20:23.889Z,16.63
2023-05-21T05:22:50.826Z,16.72
2023-05-21T05:25:17.807Z,16.96
2023-05-21T05:27:44.772Z,16.92
2023-05-21T05:30:12.064Z,16.98
2023-05-21T05:32:38.920Z,17.10
2023-05-21T05:35:06.455Z,16.90
2023-05-21T05:37:33.890Z,17.11
2023-05-21T05:40:00.668Z,17.18
2023-05-21T05:42:27.471Z,17.17
2023-05-21T05:44:54.197Z,17.33
2023-05-21T05:47:22.039Z,17.26
2023-05-21T05:49:48.859Z,17.25
2023-05-21T05:52:15.630Z,17.29
2023-05-21T05:54:42.399Z,17.35
2023-05-21T05:57:09.224Z,17.49
2023-05-21T05:59:36.233Z,17.57
2023-05-21T06:02:03.045Z,17.71
2023-05-21T06:04:30.329Z,17.75
2023-05-21T06:06:57.952Z,18.03
2023-05-21T06:09:25.113Z,18.38
2023-05-21T06:11:51.972Z,17.97
2023-05-21T06:14:18.847Z,18.22
2023-05-21T06:16:45.709Z,18.20
2023-05-21T06:19:12.569Z,18.23
2023-05-21T06:21:39.464Z,18.41
2023-05-21T06:24:06.791Z,18.49
2023-05-21T06:26:33.611Z,18.87
2023-05-21T06:29:00.650Z,18.82
2023-05-21T06:31:28.296Z,18.81
2023-05-21T06:33:55.379Z,18.73
2023-05-21T06:36:22.408Z,19.01
2023-05-21T06:38:49.362Z,18.85
2023-05-21T06:41:16.197Z,18.99
2023-05-21T06:43:43.019Z,19.20
2023-05-21T06:46:09.950Z,19.13
2023-05-21T06:48:36.861Z,19.11
2023-05-21T06:51:03.857Z,19.28
2023-05-21T06:53:30.933Z,19.46
2023-05-21T06:55:57.830Z,19.63
2023-05-21T06:58:24.790Z,19.57
2023-05-21T07:00:51.795Z,19.70
2023-05-21T07:03:18.710Z,19.72
2023-05-21T07:05:45.676Z,20.06
2023-05-21T07:08:12.607Z,20.41
2023-05-21T07:10:39.428Z,20.74
2023-05-21T07:13:06.348Z,20.90
2023-05-21T07:15:33.147Z,20.97
2023-05-21T07:18:00.150Z,20.68
2023-05-21T07:20:27.142Z,20.79
2023-05-21T07:22:54.001Z,21.01
2023-05-21T07:25:21.190Z,21.29
2023-05-21T07:27:48.013Z,21.53
2023-05-21T07:30:15.207Z,21.24
2023-05-21T07:32:42.390Z,21.28
2023-05-21T07:35:09.690Z,21.51
2023-05-21T07:37:36.648Z,21.85
2023-05-21T07:40:04.451Z,21.54
2023-05-21T07:42:31.519Z,22.13
2023-05-21T07:44:58.319Z,22.71
2023-05-21T07:47:25.150Z,23.02
2023-05-21T07:49:52.143Z,23.13
2023-05-21T07:52:19.080Z,23.37
2023-05-21T07:54:46.116Z,23.11
2023-05-21T07:57:12.893Z,23.31
2023-05-21T07:59:39.765Z,22.71
2023-05-21T08:02:06.652Z,23.27
2023-05-21T08:04:33.621Z,22.45
2023-05-21T08:07:00.432Z,22.82
2023-05-21T08:09:27.332Z,23.21
2023-05-21T08:11:54.113Z,23.28
2023-05-21T08:14:21.002Z,23.59
2023-05-21T08:16:47.958Z,23.75
2023-05-21T08:19:14.833Z,24.49
2023-05-21T08:21:41.965Z,24.50
2023-05-21T08:24:09.180Z,23.81
2023-05-21T08:26:36.754Z,24.40
2023-05-21T08:29:03.644Z,24.60
2023-05-21T08:31:30.573Z,24.51
2023-05-21T08:33:57.574Z,24.48
2023-05-21T08:36:25.139Z,25.17
2023-05-21T08:38:51.971Z,25.31
2023-05-21T08:41:23.516Z,24.81
2023-05-21T08:44:00.542Z,24.63
2023-05-21T08:46:32.356Z,24.99
2023-05-21T08:49:01.877Z,25.02
2023-05-21T08:51:29.211Z,25.07
2023-05-21T08:53:57.802Z,24.93
2023-05-21T08:56:25.018Z,24.98
2023-05-21T08:58:52.510Z,25.35
2023-05-21T09:01:20.057Z,25.65
2023-05-21T09:03:47.511Z,25.33
2023-05-21T09:06:14.810Z,25.98
2023-05-21T09:08:49.871Z,26.24
2023-05-21T09:11:16.786Z,25.60
2023-05-21T09:13:45.207Z,26.03
2023-05-21T09:16:12.394Z,26.22
2023-05-21T09:18:39.156Z,25.89
2023-05-21T09:21:24.727Z,26.37
2023-05-21T09:23:56.455Z,26.31
2023-05-21T09:26:24.087Z,25.87
2023-05-21T09:28:52.533Z,26.12
2023-05-21T09:31:19.428Z,26.87
2023-05-21T09:33:49.950Z,25.49
2023-05-21T09:36:23.112Z,26.16
2023-05-21T09:38:52.279Z,26.07
2023-05-21T09:41:32.361Z,26.25
2023-05-21T09:44:01.410Z,27.41
2023-05-21T09:46:28.445Z,26.84
2023-05-21T09:48:55.298Z,26.93
2023-05-21T09:51:22.125Z,26.00
2023-05-21T09:53:51.513Z,26.81
2023-05-21T09:56:26.363Z,26.88
2023-05-21T09:58:57.307Z,26.61
2023-05-21T10:01:24.916Z,26.92
2023-05-21T10:03:56.621Z,26.75
2023-05-21T10:06:26.787Z,27.37
2023-05-21T10:08:57.082Z,26.96
2023-05-21T10:11:27.344Z,27.25
2023-05-21T10:14:09.242Z,26.93
2023-05-21T10:16:37.869Z,27.45
2023-05-21T10:19:06.230Z,27.29
2023-05-21T10:21:36.302Z,26.92
2023-05-21T10:24:04.694Z,27.62
2023-05-21T10:26:31.919Z,27.45
2023-05-21T10:29:00.668Z,27.30
2023-05-21T10:31:30.561Z,27.44
2023-05-21T10:33:58.120Z,27.45
2023-05-21T10:36:27.957Z,27.71
2023-05-21T10:38:58.741Z,27.29
2023-05-21T10:41:28.463Z,27.23
2023-05-21T10:44:17.232Z,26.60
2023-05-21T10:47:05.395Z,27.28
2023-05-21T10:49:55.195Z,26.54
2023-05-21T10:52:52.678Z,27.52
2023-05-21T10:55:37.737Z,27.20
2023-05-21T10:58:35.632Z,26.51
2023-05-21T11:01:03.361Z,27.32
2023-05-21T11:03:34.305Z,27.21
2023-05-21T11:06:05.682Z,27.18
2023-05-21T11:08:36.320Z,27.37
2023-05-21T11:11:04.138Z,27.89
2023-05-21T11:13:49.555Z,28.13
2023-05-21T11:16:17.445Z,28.20
2023-05-21T11:18:47.136Z,28.73
2023-05-21T11:21:15.708Z,28.12
2023-05-21T11:23:51.615Z,28.43
2023-05-21T11:26:26.473Z,28.59
2023-05-21T11:29:05.577Z,28.66
2023-05-21T11:31:38.897Z,28.87
2023-05-21T11:34:28.905Z,28.85
2023-05-21T11:37:23.673Z,29.96
2023-05-21T11:39:51.522Z,29.00
2023-05-21T11:42:32.313Z,29.69
2023-05-21T11:45:00.262Z,30.07
2023-05-21T11:47:29.191Z,30.19
2023-05-21T11:49:57.709Z,29.42
2023-05-21T11:52:25.511Z,29.72
2023-05-21T11:54:57.221Z,29.30
2023-05-21T11:57:30.960Z,29.68
2023-05-21T11:59:59.370Z,29.55
2023-05-21T12:02:33.266Z,29.27
2023-05-21T12:05:00.770Z,28.34
2023-05-21T12:07:30.095Z,29.76
2023-05-21T12:09:57.631Z,29.26
2023-05-21T12:12:30.809Z,29.45
2023-05-21T12:15:02.881Z,28.74
2023-05-21T12:17:32.012Z,29.42
2023-05-21T12:19:59.158Z,29.68
2023-05-21T12:22:29.324Z,29.45
2023-05-21T12:24:58.478Z,29.77
2023-05-21T12:27:25.423Z,29.57
2023-05-21T12:29:53.298Z,30.66
2023-05-21T12:32:21.598Z,29.86
2023-05-21T12:34:54.918Z,30.35
2023-05-21T12:37:32.624Z,30.53
2023-05-21T12:40:01.723Z,30.59
2023-05-21T12:42:31.270Z,30.79
2023-05-21T12:44:58.433Z,29.87
2023-05-21T12:47:27.107Z,30.35
2023-05-21T12:49:58.123Z,29.50
2023-05-21T12:52:27.446Z,30.16
2023-05-21T12:54:59.086Z,29.54
2023-05-21T12:57:30.550Z,30.33
2023-05-21T12:59:59.726Z,30.81
2023-05-21T13:02:32.706Z,30.92
2023-05-21T13:04:59.480Z,31.50
2023-05-21T13:07:28.170Z,31.58
2023-05-21T13:09:56.007Z,31.15
2023-05-21T13:12:24.783Z,30.99
2023-05-21T13:14:53.218Z,31.66
2023-05-21T13:17:21.118Z,31.11
2023-05-21T13:20:15.650Z,30.66
2023-05-21T13:22:48.100Z,30.95
2023-05-21T13:25:21.539Z,32.11
2023-05-21T13:27:50.332Z,32.62
2023-05-21T13:30:17.567Z,31.17
2023-05-21T13:32:44.884Z,31.67
2023-05-21T13:35:12.487Z,30.60
2023-05-21T13:37:40.555Z,31.50
2023-05-21T13:40:11.350Z,31.37
2023-05-21T13:42:41.214Z,32.06
2023-05-21T13:45:10.721Z,31.39
2023-05-21T13:47:40.153Z,30.46
2023-05-21T13:50:11.123Z,31.71
2023-05-21T13:52:38.532Z,30.58
2023-05-21T13:55:06.131Z,31.65
2023-05-21T13:57:33.491Z,31.32
2023-05-21T14:00:01.401Z,32.17
2023-05-21T14:02:28.598Z,32.53
2023-05-21T14:04:55.540Z,31.41
2023-05-21T14:07:22.720Z,30.88
2023-05-21T14:09:49.819Z,31.29
2023-05-21T14:12:17.366Z,31.59
2023-05-21T14:14:44.381Z,31.43
2023-05-21T14:17:11.370Z,32.48
2023-05-21T14:19:38.186Z,32.34
2023-05-21T14:22:05.174Z,31.15
2023-05-21T14:24:32.009Z,32.01
2023-05-21T14:26:58.841Z,30.55
2023-05-21T14:29:25.662Z,31.00
2023-05-21T14:31:52.586Z,31.85
2023-05-21T14:34:19.519Z,31.76
2023-05-21T14:36:46.291Z,31.80
2023-05-21T14:39:13.136Z,31.96
2023-05-21T14:41:40.073Z,32.18
2023-05-21T14:44:07.046Z,31.45
2023-05-21T14:46:34.095Z,32.10
2023-05-21T14:49:01.181Z,31.06
2023-05-21T14:51:28.105Z,32.88
2023-05-21T14:53:55.965Z,32.11
2023-05-21T14:56:23.773Z,33.57
2023-05-21T14:58:50.652Z,31.26
2023-05-21T15:01:17.981Z,32.21
2023-05-21T15:03:44.886Z,31.48
2023-05-21T15:06:12.438Z,33.38
2023-05-21T15:08:39.253Z,32.66
2023-05-21T15:11:07.940Z,32.72
2023-05-21T15:13:34.857Z,32.17
2023-05-21T15:16:01.718Z,32.08
2023-05-21T15:18:29.572Z,32.85
2023-05-21T15:20:56.691Z,31.44
2023-05-21T15:23:23.521Z,32.56
2023-05-21T15:25:50.541Z,31.32
2023-05-21T15:28:17.405Z,30.51
2023-05-21T15:30:44.222Z,31.33
2023-05-21T15:33:11.735Z,32.40
2023-05-21T15:35:39.027Z,30.68
2023-05-21T15:38:06.254Z,32.49
2023-05-21T15:40:33.162Z,31.58
2023-05-21T15:43:00.158Z,33.00
2023-05-21T15:45:27.095Z,32.36
2023-05-21T15:47:53.948Z,32.15
2023-05-21T15:50:20.908Z,32.42
2023-05-21T15:52:47.716Z,32.41
2023-05-21T15:55:14.723Z,30.71
2023-05-21T15:57:41.558Z,31.11
2023-05-21T16:00:09.842Z,31.30
2023-05-21T16:02:37.094Z,30.52
2023-05-21T16:05:04.216Z,30.55
2023-05-21T16:07:31.083Z,30.70
2023-05-21T16:09:57.982Z,31.14
2023-05-21T16:12:24.999Z,30.19
2023-05-21T16:14:52.029Z,29.94
2023-05-21T16:17:21.977Z,30.65
2023-05-21T16:19:48.883Z,30.06
2023-05-21T16:22:15.831Z,31.01
2023-05-21T16:24:42.990Z,30.95
2023-05-21T16:27:09.833Z,31.85
2023-05-21T16:29:38.658Z,29.64
2023-05-21T16:32:07.186Z,30.22
2023-05-21T16:34:34.741Z,30.37
2023-05-21T16:37:01.585Z,30.55
2023-05-21T16:39:28.359Z,31.10
2023-05-21T16:41:59.851Z,30.82
2023-05-21T16:44:27.636Z,32.04
2023-05-21T16:46:54.593Z,30.98
2023-05-21T16:49:21.396Z,30.90
2023-05-21T16:51:48.162Z,31.25
2023-05-21T16:54:14.989Z,30.53
2023-05-21T16:56:41.870Z,31.45
2023-05-21T16:59:08.689Z,30.69
2023-05-21T17:01:35.609Z,30.70
2023-05-21T17:04:02.712Z,31.21
2023-05-21T17:06:29.567Z,30.74
2023-05-21T17:08:56.484Z,31.26
2023-05-21T17:11:23.338Z,30.77
2023-05-21T17:13:50.166Z,30.61
2023-05-21T17:16:17.024Z,30.25
2023-05-21T17:18:44.002Z,30.30
2023-05-21T17:21:10.991Z,30.41
2023-05-21T17:23:37.830Z,30.17
2023-05-21T17:26:07.258Z,29.63
2023-05-21T17:28:33.992Z,28.82
2023-05-21T17:31:01.968Z,28.76
2023-05-21T17:33:28.870Z,28.66
2023-05-21T17:35:57.333Z,28.81
2023-05-21T17:38:24.226Z,29.06
2023-05-21T17:40:51.219Z,28.22
2023-05-21T17:43:18.293Z,28.10
2023-05-21T17:45:45.198Z,27.83
2023-05-21T17:48:12.442Z,27.47
2023-05-21T17:50:39.291Z,27.33
2023-05-21T17:53:06.230Z,26.89
2023-05-21T17:55:33.042Z,26.64
2023-05-21T17:57:59.782Z,26.51
2023-05-21T18:00:26.564Z,26.33
2023-05-21T18:02:53.407Z,26.25
2023-05-21T18:05:20.686Z,26.23
2023-05-21T18:07:49.478Z,26.13
2023-05-21T18:10:16.794Z,25.93
2023-05-21T18:12:46.629Z,25.73
2023-05-21T18:15:15.463Z,25.67
2023-05-21T18:17:42.350Z,25.51
2023-05-21T18:20:09.802Z,25.45
2023-05-21T18:22:36.922Z,25.46
2023-05-21T18:25:04.664Z,25.28
2023-05-21T18:27:31.483Z,25.19
2023-05-21T18:29:58.245Z,25.13
2023-05-21T18:32:25.166Z,25.00
2023-05-21T18:34:52.090Z,24.93
2023-05-21T18:37:19.088Z,24.81
2023-05-21T18:39:45.980Z,24.72
2023-05-21T18:42:14.124Z,24.59
2023-05-21T18:44:41.284Z,24.49
2023-05-21T18:47:08.323Z,24.44
2023-05-21T18:49:36.480Z,24.26
2023-05-21T18:52:04.588Z,24.05
2023-05-21T18:54:31.457Z,23.95
2023-05-21T18:57:00.611Z,23.99
2023-05-21T18:59:29.327Z,23.86
2023-05-21T19:01:56.405Z,23.76
2023-05-21T19:04:23.294Z,23.70
2023-05-21T19:06:50.147Z,23.61
2023-05-21T19:09:17.133Z,23.60
2023-05-21T19:11:44.179Z,23.39
2023-05-21T19:14:11.191Z,23.25
2023-05-21T19:16:38.192Z,23.16
2023-05-21T19:19:06.287Z,23.06
2023-05-21T19:21:33.329Z,23.08
2023-05-21T19:24:00.170Z,22.98
2023-05-21T19:26:27.146Z,22.98
2023-05-21T19:28:54.812Z,22.88
2023-05-21T19:31:23.245Z,22.77
2023-05-21T19:33:50.689Z,22.75
2023-05-21T19:36:18.705Z,22.65
2023-05-21T19:38:50.140Z,22.66
2023-05-21T19:41:17.697Z,22.52
2023-05-21T19:43:45.238Z,22.43
2023-05-21T19:46:12.266Z,22.36
2023-05-21T19:48:39.215Z,22.21
2023-05-21T19:51:06.250Z,22.23
2023-05-21T19:53:33.083Z,22.09
2023-05-21T19:56:00.265Z,22.12
2023-05-21T19:58:29.731Z,22.08
2023-05-21T20:00:58.629Z,21.90
2023-05-21T20:03:26.847Z,21.90
2023-05-21T20:05:54.517Z,21.80
2023-05-21T20:08:21.518Z,21.70
2023-05-21T20:10:51.336Z,21.60
2023-05-21T20:13:18.979Z,21.55
2023-05-21T20:15:45.860Z,21.44
2023-05-21T20:18:13.216Z,21.46
2023-05-21T20:20:41.538Z,21.39
2023-05-21T20:23:09.164Z,21.37
2023-05-21T20:25:36.052Z,21.28
2023-05-21T20:28:03.309Z,21.16
2023-05-21T20:30:34.190Z,21.00
2023-05-21T20:33:02.487Z,20.94
2023-05-21T20:35:29.764Z,20.99
2023-05-21T20:37:56.586Z,20.85
2023-05-21T20:40:23.472Z,20.76
2023-05-21T20:42:52.253Z,20.67
2023-05-21T20:45:19.278Z,20.65
2023-05-21T20:47:48.238Z,20.60
2023-05-21T20:50:17.980Z,20.52
2023-05-21T20:52:47.103Z,20.50
2023-05-21T20:55:14.916Z,20.37
2023-05-21T20:57:42.368Z,20.47
2023-05-21T21:00:12.126Z,20.38
2023-05-21T21:02:39.334Z,20.47
2023-05-21T21:05:06.652Z,20.40
2023-05-21T21:07:34.432Z,20.21
2023-05-21T21:10:01.648Z,20.14
2023-05-21T21:12:28.648Z,20.05
2023-05-21T21:14:55.683Z,20.13
2023-05-21T21:17:22.692Z,20.02
2023-05-21T21:19:49.472Z,19.78
2023-05-21T21:22:16.630Z,19.87
2023-05-21T21:24:43.470Z,19.71
2023-05-21T21:27:10.499Z,19.60
2023-05-21T21:29:37.327Z,19.59
2023-05-21T21:32:04.485Z,19.51
2023-05-21T21:34:31.261Z,19.42
2023-05-21T21:36:58.019Z,19.47
2023-05-21T21:39:26.414Z,19.36
2023-05-21T21:41:53.192Z,19.28
2023-05-21T21:44:19.986Z,19.22
2023-05-21T21:46:47.525Z,19.14
2023-05-21T21:49:16.951Z,19.14
2023-05-21T21:51:48.633Z,19.13
2023-05-21T21:54:15.445Z,19.07
2023-05-21T21:56:42.197Z,19.07
2023-05-21T21:59:09.106Z,19.02
2023-05-21T22:01:36.308Z,18.92
2023-05-21T22:04:03.342Z,18.91
2023-05-21T22:06:30.212Z,18.82
2023-05-21T22:08:57.047Z,18.81
2023-05-21T22:11:24.081Z,18.68
2023-05-21T22:13:50.873Z,18.70
2023-05-21T22:16:17.717Z,18.62
2023-05-21T22:18:44.652Z,18.56
2023-05-21T22:21:14.615Z,18.41
2023-05-21T22:23:41.657Z,18.38
2023-05-21T22:26:09.594Z,18.31
2023-05-21T22:28:36.510Z,18.27
2023-05-21T22:31:03.479Z,18.27
2023-05-21T22:33:30.525Z,18.14
2023-05-21T22:35:57.344Z,18.07
2023-05-21T22:38:25.070Z,18.08
2023-05-21T22:40:51.893Z,18.01
2023-05-21T22:43:18.746Z,18.04
2023-05-21T22:45:45.662Z,18.04
2023-05-21T22:48:12.516Z,17.87
2023-05-21T22:50:39.620Z,17.85
2023-05-21T22:53:07.268Z,17.87
2023-05-21T22:55:34.081Z,17.82
2023-05-21T22:58:00.874Z,17.77
2023-05-21T23:00:28.407Z,17.73
2023-05-21T23:02:55.277Z,17.62
2023-05-21T23:05:22.578Z,17.54
2023-05-21T23:07:49.984Z,17.61
2023-05-21T23:10:16.920Z,17.57
2023-05-21T23:12:43.798Z,17.60
2023-05-21T23:15:11.028Z,17.54
2023-05-21T23:17:38.605Z,17.51
2023-05-21T23:20:07.545Z,17.50
2023-05-21T23:22:34.891Z,17.43
2023-05-21T23:25:02.054Z,17.33
2023-05-21T23:27:29.517Z,17.33
2023-05-21T23:29:56.706Z,17.31
2023-05-21T23:32:24.229Z,17.13
2023-05-21T23:34:51.073Z,17.18
2023-05-21T23:37:18.070Z,17.13
2023-05-21T23:39:48.399Z,17.03
2023-05-21T23:42:16.709Z,16.92
2023-05-21T23:44:43.659Z,16.94
2023-05-21T23:47:10.638Z,16.91
2023-05-21T23:49:37.480Z,16.89
2023-05-21T23:52:04.473Z,16.92
2023-05-21T23:54:31.397Z,16.86
2023-05-21T23:56:58.179Z,16.85
2023-05-21T23:59:25.103Z,16.72
